Time;durP1;ratioP1;P1;durP2;ratioP2;P2;SDS_P1;SDS_P2;PMS_P1;PMS_P2;Temp;Humidity;BMP_temperature;BMP_pressure;BME280_temperature;BME280_humidity;BME280_pressure;Samples;Min_cycle;Max_cycle;Signal;HPM_P1;HPM_P2
2024/03/05 00:01:48;;;;;;;14.53;7.40;;;;;;;9.30;84.22;100827.50;5095126;28;21019;-72
2024/03/05 00:04:14;;;;;;;16.23;7.67;;;;;;;9.30;84.20;100834.81;5095266;28;20437;-72
2024/03/05 00:06:41;;;;;;;15.70;7.63;;;;;;;9.26;84.06;100831.88;5094893;28;20863;-71
2024/03/05 00:09:07;;;;;;;12.83;6.70;;;;;;;9.29;84.33;100838.56;5095153;28;20237;-72
2024/03/05 00:11:35;;;;;;;14.57;7.63;;;;;;;9.32;84.77;100838.81;5094601;28;20963;-72
2024/03/05 00:14:02;;;;;;;14.53;6.57;;;;;;;9.22;84.38;100833.53;5094682;28;20465;-72
2024/03/05 00:16:29;;;;;;;12.47;6.37;;;;;;;9.30;83.71;100832.09;5094487;28;20452;-72
2024/03/05 00:18:57;;;;;;;12.93;5.60;;;;;;;9.26;83.12;100834.56;5094620;28;20471;-72
2024/03/05 00:21:23;;;;;;;10.93;5.67;;;;;;;9.24;82.62;100835.94;5094985;28;20444;-72
2024/03/05 00:23:50;;;;;;;8.37;4.73;;;;;;;9.22;82.88;100841.63;5094748;28;20483;-72
2024/03/05 00:26:18;;;;;;;11.10;6.37;;;;;;;9.19;82.00;100850.31;5093763;28;21014;-72
2024/03/05 00:28:44;;;;;;;13.97;6.33;;;;;;;9.20;81.29;100851.91;5094118;28;20444;-72
2024/03/05 00:31:11;;;;;;;10.90;5.40;;;;;;;9.10;80.24;100854.72;5093978;28;20887;-72
2024/03/05 00:33:38;;;;;;;11.60;6.10;;;;;;;9.07;79.89;100850.69;5093962;28;20505;-72
2024/03/05 00:36:06;;;;;;;12.63;7.40;;;;;;;9.05;79.31;100849.34;5094284;28;20456;-71
2024/03/05 00:38:33;;;;;;;13.70;5.73;;;;;;;9.03;77.81;100852.34;5094318;28;20819;-72
2024/03/05 00:40:59;;;;;;;15.30;6.90;;;;;;;8.96;77.20;100862.66;5094310;28;20447;-71
2024/03/05 00:43:26;;;;;;;10.80;5.20;;;;;;;8.94;77.75;100858.63;5094672;28;20892;-71
2024/03/05 00:45:53;;;;;;;13.57;6.60;;;;;;;8.93;77.59;100867.81;5094456;28;20515;-71
2024/03/05 00:48:20;;;;;;;11.80;6.20;;;;;;;8.91;77.33;100865.41;5094758;28;20452;-71
2024/03/05 00:50:46;;;;;;;9.87;4.77;;;;;;;8.86;77.51;100864.66;5094090;28;20531;-71
2024/03/05 00:53:14;;;;;;;13.20;5.07;;;;;;;8.83;78.33;100869.53;5093980;28;20579;-71
2024/03/05 00:55:41;;;;;;;11.57;4.90;;;;;;;8.81;76.65;100877.13;5094026;28;20801;-72
2024/03/05 00:58:07;;;;;;;10.80;5.07;;;;;;;8.74;75.71;100873.91;5094430;28;20445;-71
2024/03/05 01:00:34;;;;;;;8.60;4.80;;;;;;;8.66;75.65;100877.22;5094079;28;20472;-72
2024/03/05 01:03:01;;;;;;;12.50;5.10;;;;;;;8.66;75.73;100879.09;5094088;28;20452;-72
2024/03/05 01:05:27;;;;;;;8.40;4.40;;;;;;;8.64;74.82;100875.91;5093858;28;20484;-72
2024/03/05 01:07:54;;;;;;;12.57;5.33;;;;;;;8.59;75.94;100869.44;5093838;28;20437;-72
2024/03/05 01:10:22;;;;;;;11.03;5.23;;;;;;;8.57;75.89;100868.09;5093501;28;20472;-72
2024/03/05 01:12:49;;;;;;;9.83;4.33;;;;;;;8.56;74.78;100875.41;5093724;28;20467;-72
2024/03/05 01:15:16;;;;;;;9.97;5.30;;;;;;;8.56;75.01;100878.09;5105977;22;20421;-69
2024/03/05 01:17:43;;;;;;;10.20;4.90;;;;;;;8.51;75.23;100874.63;5073874;28;20805;-69
2024/03/05 01:20:15;;;;;;;10.50;4.97;;;;;;;8.48;76.34;100877.88;5073450;28;20469;-69
2024/03/05 01:22:42;;;;;;;11.00;4.33;;;;;;;8.51;76.69;100877.31;5073400;28;20827;-71
2024/03/05 01:25:09;;;;;;;12.27;3.90;;;;;;;8.51;76.41;100871.94;5073032;28;20477;-71
2024/03/05 01:27:38;;;;;;;10.23;5.37;;;;;;;8.54;76.99;100876.75;5073628;28;20536;-71
2024/03/05 01:30:08;;;;;;;8.33;4.23;;;;;;;8.59;76.84;100872.13;5073330;28;20878;-71
2024/03/05 01:32:35;;;;;;;8.70;4.40;;;;;;;8.62;77.04;100875.34;5073016;28;20462;-72
2024/03/05 01:35:04;;;;;;;23.13;4.80;;;;;;;8.58;76.61;100877.81;5073935;28;20460;-72
2024/03/05 01:37:31;;;;;;;19.93;5.33;;;;;;;8.54;76.09;100876.75;5075830;28;20477;-72
2024/03/05 01:39:58;;;;;;;10.63;4.00;;;;;;;8.52;77.00;100878.94;5077485;28;20473;-72
2024/03/05 01:42:24;;;;;;;9.50;5.37;;;;;;;8.49;76.64;100869.50;5077333;28;20460;-72
2024/03/05 01:44:52;;;;;;;16.20;5.13;;;;;;;8.51;76.28;100871.94;5077001;28;20476;-72
2024/03/05 01:47:20;;;;;;;10.40;4.40;;;;;;;8.48;75.72;100884.06;5077316;28;20488;-72
2024/03/05 01:49:47;;;;;;;10.97;5.00;;;;;;;8.43;75.43;100880.63;5077332;28;20441;-72
2024/03/05 01:52:14;;;;;;;7.57;5.20;;;;;;;8.41;75.57;100883.59;5077406;28;20473;-72
2024/03/05 01:54:42;;;;;;;12.17;3.97;;;;;;;8.38;75.51;100884.16;5077533;28;20518;-70
2024/03/05 01:57:09;;;;;;;8.50;5.27;;;;;;;8.34;75.16;100885.75;5077118;28;20437;-70
2024/03/05 01:59:38;;;;;;;9.57;3.93;;;;;;;8.33;74.83;100886.84;5076727;28;20558;-70
2024/03/05 02:02:07;;;;;;;10.27;3.90;;;;;;;8.30;74.31;100890.09;5076962;28;20552;-70
2024/03/05 02:04:37;;;;;;;9.63;5.43;;;;;;;8.28;74.17;100887.69;5077458;28;20794;-70
2024/03/05 02:07:07;;;;;;;15.10;4.70;;;;;;;8.22;74.07;100888.78;5077594;28;20485;-71
2024/03/05 02:09:34;;;;;;;14.47;6.27;;;;;;;8.14;74.21;100880.47;5076803;28;20445;-71
2024/03/05 02:12:02;;;;;;;16.00;4.63;;;;;;;8.13;75.00;100882.34;5076760;28;20498;-71
2024/03/05 02:14:29;;;;;;;14.70;4.30;;;;;;;8.10;74.98;100888.28;5077104;28;20535;-71
2024/03/05 02:16:58;;;;;;;10.17;4.37;;;;;;;8.05;74.40;100885.63;5076384;28;20453;-70
2024/03/05 02:19:26;;;;;;;14.97;5.50;;;;;;;7.98;74.95;100885.13;5076945;28;20437;-70
2024/03/05 02:21:59;;;;;;;9.90;5.00;;;;;;;7.91;75.47;100887.31;5076910;28;20851;-70
2024/03/05 02:24:26;;;;;;;9.03;4.03;;;;;;;7.85;76.16;100891.91;5076964;28;20426;-70
2024/03/05 02:26:53;;;;;;;7.17;3.90;;;;;;;7.84;76.86;100888.41;5076318;28;20852;-70
2024/03/05 02:29:20;;;;;;;10.17;4.73;;;;;;;7.85;76.48;100886.53;5076490;28;20445;-70
2024/03/05 02:31:48;;;;;;;8.97;5.10;;;;;;;7.83;77.07;100888.66;5076345;28;20804;-70
2024/03/05 02:34:15;;;;;;;8.10;5.17;;;;;;;7.79;76.56;100890.28;5076740;28;20449;-70
2024/03/05 02:36:43;;;;;;;8.27;4.50;;;;;;;7.82;76.77;100890.56;5058456;28;20441;-70
2024/03/05 02:39:12;;;;;;;6.90;3.70;;;;;;;7.79;77.40;100893.00;5076300;28;20437;-70
2024/03/05 02:41:39;;;;;;;10.30;4.60;;;;;;;7.75;78.38;100894.66;5076183;28;20848;-70
2024/03/05 02:44:05;;;;;;;14.90;5.77;;;;;;;7.75;78.60;100876.59;5076561;28;20448;-70
2024/03/05 02:46:32;;;;;;;9.43;3.67;;;;;;;7.70;78.64;100887.38;5076150;28;20584;-70
2024/03/05 02:48:59;;;;;;;9.07;3.80;;;;;;;7.72;78.88;100887.91;5075240;28;20440;-71
2024/03/05 02:51:28;;;;;;;8.20;4.30;;;;;;;7.66;79.03;100898.97;5076238;28;20941;-71
2024/03/05 02:53:56;;;;;;;8.50;4.27;;;;;;;7.63;78.03;100894.13;5076005;28;20993;-71
2024/03/05 02:56:25;;;;;;;15.40;4.60;;;;;;;7.60;78.48;100898.19;5076528;28;20441;-71
2024/03/05 02:58:52;;;;;;;8.40;3.90;;;;;;;7.52;79.19;100906.81;5076134;28;20445;-71
2024/03/05 03:01:19;;;;;;;11.03;4.80;;;;;;;7.45;79.92;100914.38;5075556;28;21000;-71
2024/03/05 03:03:45;;;;;;;8.67;4.10;;;;;;;7.41;80.49;100913.31;5075734;28;20465;-71
2024/03/05 03:06:16;;;;;;;10.90;5.67;;;;;;;7.47;80.93;100917.59;5075732;28;20925;-71
2024/03/05 03:08:43;;;;;;;14.87;4.70;;;;;;;7.47;81.30;100920.31;5075623;28;20785;-71
2024/03/05 03:11:14;;;;;;;10.20;4.20;;;;;;;7.46;81.57;100924.88;5075744;28;20853;-71
2024/03/05 03:13:42;;;;;;;9.53;4.80;;;;;;;7.46;81.58;100927.59;5075692;28;20533;-70
2024/03/05 03:16:09;;;;;;;10.03;4.57;;;;;;;7.41;81.50;100924.09;5075702;28;20537;-70
2024/03/05 03:18:36;;;;;;;8.30;4.47;;;;;;;7.34;81.79;100930.53;5075973;28;20542;-70
2024/03/05 03:21:03;;;;;;;9.93;5.03;;;;;;;7.33;81.89;100928.13;5075804;28;20921;-70
2024/03/05 03:23:29;;;;;;;14.00;4.67;;;;;;;7.26;82.17;100931.13;5075234;28;20467;-70
2024/03/05 03:25:58;;;;;;;11.27;4.87;;;;;;;7.17;82.18;100938.13;5075628;28;20487;-70
2024/03/05 03:28:25;;;;;;;4.80;3.37;;;;;;;7.17;81.92;100950.75;5075347;28;20446;-71
2024/03/05 03:30:54;;;;;;;8.07;5.00;;;;;;;7.08;81.97;100943.25;5075393;28;20528;-71
2024/03/05 03:33:21;;;;;;;9.60;4.10;;;;;;;7.06;82.33;100939.19;5074966;28;20465;-71
2024/03/05 03:35:48;;;;;;;8.37;4.30;;;;;;;6.96;82.99;100944.56;5075301;28;20804;-71
2024/03/05 03:38:15;;;;;;;8.73;4.60;;;;;;;6.89;83.66;100942.13;5075229;28;20532;-71
2024/03/05 03:40:42;;;;;;;13.03;4.50;;;;;;;6.76;84.42;100946.13;5075233;28;20461;-71
2024/03/05 03:43:10;;;;;;;11.00;4.63;;;;;;;6.70;85.16;100946.41;5075133;28;20980;-70
2024/03/05 03:45:37;;;;;;;16.07;3.83;;;;;;;6.72;84.93;100949.63;5074876;28;20445;-70
2024/03/05 03:48:06;;;;;;;6.30;3.47;;;;;;;6.68;84.55;100949.34;5074965;28;20442;-70
2024/03/05 03:50:33;;;;;;;10.77;4.77;;;;;;;6.60;85.74;100943.66;5074989;28;20528;-70
2024/03/05 03:52:59;;;;;;;7.30;4.10;;;;;;;6.55;86.02;100944.47;5074813;28;20461;-70
2024/03/05 03:55:30;;;;;;;7.07;4.33;;;;;;;6.54;87.09;100940.16;5057178;28;20441;-70
2024/03/05 03:57:57;;;;;;;9.43;4.53;;;;;;;6.54;87.56;100940.16;5075187;28;20446;-70
2024/03/05 04:00:23;;;;;;;7.90;4.40;;;;;;;6.47;87.42;100936.94;5074454;28;20447;-70
2024/03/05 04:02:50;;;;;;;14.00;4.03;;;;;;;6.44;87.83;100938.25;5074769;28;20540;-70
2024/03/05 04:05:18;;;;;;;10.53;4.93;;;;;;;6.44;87.33;100951.72;5074640;28;20524;-70
2024/03/05 04:07:45;;;;;;;7.40;4.27;;;;;;;6.41;87.40;100943.34;5074228;28;21065;-70
2024/03/05 04:10:11;;;;;;;5.77;2.60;;;;;;;6.34;88.09;100948.19;5074915;28;20480;-72
2024/03/05 04:12:39;;;;;;;8.67;3.97;;;;;;;6.32;88.70;100946.56;5076092;28;20457;-68
2024/03/05 04:15:07;;;;;;;9.63;4.10;;;;;;;6.28;89.02;100953.53;5057315;28;20458;-70
2024/03/05 04:17:36;;;;;;;7.37;3.60;;;;;;;6.31;89.05;100963.78;5074479;28;20476;-70
2024/03/05 04:20:04;;;;;;;6.87;4.33;;;;;;;6.31;89.00;100962.97;5074349;28;20445;-71
2024/03/05 04:22:32;;;;;;;6.93;3.83;;;;;;;6.32;89.25;100973.47;5074266;28;20501;-71
2024/03/05 04:24:59;;;;;;;6.50;3.77;;;;;;;6.29;89.03;100974.00;5074210;28;20495;-71
2024/03/05 04:27:27;;;;;;;8.90;4.03;;;;;;;6.31;88.96;100974.53;5073785;28;20477;-71
2024/03/05 04:29:53;;;;;;;8.40;3.57;;;;;;;6.24;88.65;100975.84;5074199;28;20449;-71
2024/03/05 04:32:21;;;;;;;11.33;4.50;;;;;;;6.24;88.93;100982.06;5073947;28;20961;-71
2024/03/05 04:34:50;;;;;;;6.33;2.90;;;;;;;6.23;88.59;100979.59;5074025;28;20854;-71
2024/03/05 04:37:16;;;;;;;6.33;3.43;;;;;;;6.16;88.22;100985.25;5074019;28;20440;-71
2024/03/05 04:39:46;;;;;;;6.53;3.07;;;;;;;6.14;88.10;100992.75;5074105;28;20524;-71
2024/03/05 04:42:14;;;;;;;11.37;4.83;;;;;;;6.14;87.61;100992.75;5073537;28;20965;-71
2024/03/05 04:44:42;;;;;;;10.90;4.67;;;;;;;6.06;88.01;100991.38;5073868;28;20433;-71
2024/03/05 04:47:09;;;;;;;15.83;3.00;;;;;;;6.03;88.59;100999.97;5073811;28;20477;-71
2024/03/05 04:49:36;;;;;;;7.13;4.20;;;;;;;6.06;88.56;100995.91;5074329;28;20540;-71
2024/03/05 04:52:03;;;;;;;10.50;4.10;;;;;;;6.03;88.35;100999.16;5073451;28;20454;-71
2024/03/05 04:54:30;;;;;;;6.23;3.73;;;;;;;5.95;88.53;100988.88;5073817;28;20433;-71
2024/03/05 04:56:59;;;;;;;6.00;4.00;;;;;;;5.90;88.88;100983.44;5073733;28;20442;-71
2024/03/05 04:59:26;;;;;;;10.40;4.93;;;;;;;5.85;89.09;100986.91;5074179;28;20437;-71
2024/03/05 05:01:52;;;;;;;13.03;4.60;;;;;;;5.79;89.72;100985.25;5073577;28;20444;-71
2024/03/05 05:04:19;;;;;;;6.43;3.23;;;;;;;5.74;90.52;100988.72;5073841;28;20528;-71
2024/03/05 05:06:46;;;;;;;8.87;4.10;;;;;;;5.77;90.62;100993.56;5082255;28;20568;-71
2024/03/05 05:09:15;;;;;;;10.13;4.77;;;;;;;5.80;90.68;100992.25;5084994;28;20437;-71
2024/03/05 05:11:41;;;;;;;9.87;3.60;;;;;;;5.75;91.03;100989.50;5073315;28;20437;-71
2024/03/05 05:14:10;;;;;;;9.70;3.73;;;;;;;5.77;91.09;100992.78;5073260;28;20875;-71
2024/03/05 05:16:37;;;;;;;6.60;3.07;;;;;;;5.72;91.26;100993.56;5073204;28;20453;-70
2024/03/05 05:19:04;;;;;;;7.43;3.53;;;;;;;5.71;90.92;100993.78;5073905;28;20524;-70
2024/03/05 05:21:31;;;;;;;8.20;2.97;;;;;;;5.63;91.32;100992.41;5073810;28;20821;-70
2024/03/05 05:23:58;;;;;;;10.40;4.13;;;;;;;5.59;91.93;101001.25;5073374;28;20468;-70
2024/03/05 05:26:25;;;;;;;8.30;3.10;;;;;;;5.60;91.92;101009.03;5073554;28;20541;-70
2024/03/05 05:28:51;;;;;;;5.57;3.00;;;;;;;5.59;91.51;101002.06;5073446;28;20437;-70
2024/03/05 05:31:24;;;;;;;9.93;3.30;;;;;;;5.54;91.27;101005.50;5073370;28;20433;-70
2024/03/05 05:33:51;;;;;;;7.13;4.30;;;;;;;5.51;91.57;101006.00;5073620;28;20975;-70
2024/03/05 05:36:17;;;;;;;9.00;3.70;;;;;;;5.46;91.48;101011.34;5073310;28;20573;-70
2024/03/05 05:38:45;;;;;;;14.40;3.87;;;;;;;5.45;91.68;101017.00;5073918;28;20440;-70
2024/03/05 05:41:11;;;;;;;10.03;4.53;;;;;;;5.42;91.83;101020.19;5073286;28;20495;-71
2024/03/05 05:43:38;;;;;;;6.83;4.10;;;;;;;5.39;91.63;101015.31;5073255;28;20551;-71
2024/03/05 05:46:04;;;;;;;9.77;4.43;;;;;;;5.31;91.01;101019.25;5073267;28;20532;-71
2024/03/05 05:48:33;;;;;;;5.27;2.20;;;;;;;5.27;90.99;101021.69;5073325;28;20527;-71
2024/03/05 05:51:00;;;;;;;7.20;4.00;;;;;;;5.21;91.13;101022.66;5073400;28;20495;-72
2024/03/05 05:53:27;;;;;;;11.33;3.80;;;;;;;5.16;91.05;101029.88;5073051;28;20472;-72
2024/03/05 05:55:54;;;;;;;6.37;3.27;;;;;;;5.07;90.38;101037.56;5073551;28;20524;-72
2024/03/05 05:58:21;;;;;;;7.67;3.33;;;;;;;5.00;90.54;101039.63;5073440;28;20440;-72
2024/03/05 06:00:48;;;;;;;6.20;3.00;;;;;;;4.95;91.01;101039.59;5073247;28;20465;-72
2024/03/05 06:03:14;;;;;;;8.07;3.33;;;;;;;4.96;91.37;101041.22;5072760;28;20552;-72
2024/03/05 06:05:43;;;;;;;11.10;5.00;;;;;;;4.93;91.70;101042.53;5073119;28;20433;-72
2024/03/05 06:08:11;;;;;;;4.93;2.83;;;;;;;4.95;91.46;101044.97;5072673;28;20488;-72
2024/03/05 06:10:38;;;;;;;8.67;3.20;;;;;;;4.88;91.20;101049.72;5072865;28;20925;-72
2024/03/05 06:13:06;;;;;;;5.20;2.73;;;;;;;4.91;91.77;101046.53;5072933;28;20457;-72
2024/03/05 06:15:33;;;;;;;6.70;3.40;;;;;;;4.89;92.62;101045.97;5072942;28;20453;-72
2024/03/05 06:18:00;;;;;;;9.73;2.90;;;;;;;4.88;93.47;101047.84;5072880;28;20889;-72
2024/03/05 06:20:28;;;;;;;5.20;2.23;;;;;;;4.86;93.68;101047.28;5072948;28;20922;-72
2024/03/05 06:22:57;;;;;;;10.50;3.27;;;;;;;4.90;93.43;101044.91;5073968;28;20465;-72
2024/03/05 06:25:23;;;;;;;7.57;3.70;;;;;;;4.89;93.00;101052.16;5076886;28;20532;-72
2024/03/05 06:27:50;;;;;;;5.70;3.07;;;;;;;4.84;92.48;101049.41;5076366;28;20487;-72
2024/03/05 06:30:18;;;;;;;6.50;2.60;;;;;;;4.86;92.37;101046.47;5076595;28;20453;-71
2024/03/05 06:32:47;;;;;;;4.23;2.13;;;;;;;4.84;92.53;101048.59;5076374;28;20461;-71
2024/03/05 06:35:13;;;;;;;6.93;3.10;;;;;;;4.81;92.35;101056.09;5076580;28;20448;-71
2024/03/05 06:37:41;;;;;;;5.07;2.60;;;;;;;4.76;92.61;101058.72;5075975;28;20471;-71
2024/03/05 06:40:10;;;;;;;4.80;1.90;;;;;;;4.79;92.82;101068.16;5075985;28;21020;-71
2024/03/05 06:42:38;;;;;;;7.30;3.57;;;;;;;4.81;92.52;101066.81;5076498;28;20552;-72
2024/03/05 06:45:07;;;;;;;6.33;3.60;;;;;;;4.80;92.84;101075.13;5076226;28;20930;-72
2024/03/05 06:47:39;;;;;;;5.27;3.13;;;;;;;4.83;92.94;101071.16;5076058;28;20485;-72
2024/03/05 06:50:08;;;;;;;4.10;2.10;;;;;;;4.80;93.62;101073.25;5076453;28;20428;-72
2024/03/05 06:58:05;;;;;;;13.23;4.10;;;;;;;4.80;94.96;101075.94;5075869;28;20943;-71
2024/03/05 07:00:34;;;;;;;6.60;3.47;;;;;;;4.77;94.73;101079.09;5075961;28;20855;-71
2024/03/05 07:03:00;;;;;;;5.87;2.67;;;;;;;4.79;94.87;101071.63;5076224;28;20457;-71
2024/03/05 07:05:27;;;;;;;8.27;3.63;;;;;;;4.80;94.82;101080.50;5075439;28;20536;-71
2024/03/05 07:07:54;;;;;;;8.67;2.90;;;;;;;4.83;95.13;101074.63;5075982;28;20481;-72
2024/03/05 07:10:22;;;;;;;5.00;2.93;;;;;;;4.90;95.14;101079.78;5075514;28;20835;-73
2024/03/05 07:12:50;;;;;;;6.43;3.17;;;;;;;4.95;95.12;101079.84;5075825;28;20527;-72
2024/03/05 07:15:18;;;;;;;10.63;4.47;;;;;;;4.98;94.64;101082.84;5088811;22;20508;-72
2024/03/05 07:17:44;;;;;;;6.50;3.53;;;;;;;4.95;94.18;101077.16;5075377;28;20457;-72
2024/03/05 07:20:18;;;;;;;6.23;3.30;;;;;;;4.92;93.71;101077.69;5075504;28;20445;-72
2024/03/05 07:22:46;;;;;;;5.57;3.50;;;;;;;4.93;94.06;101079.31;5075112;28;20467;-72
2024/03/05 07:25:14;;;;;;;13.17;4.67;;;;;;;4.94;94.00;101080.91;5075694;28;20524;-72
2024/03/05 07:27:43;;;;;;;4.77;2.83;;;;;;;4.98;93.53;101077.47;5075577;28;20483;-72
2024/03/05 07:30:15;;;;;;;7.57;3.87;;;;;;;5.01;93.10;101076.19;5075340;28;20473;-72
2024/03/05 07:32:43;;;;;;;6.70;4.03;;;;;;;5.03;92.63;101082.09;5075134;28;21020;-72
2024/03/05 07:35:10;;;;;;;7.87;3.37;;;;;;;5.07;92.38;101075.16;5074672;28;20471;-72
2024/03/05 07:37:37;;;;;;;8.60;3.70;;;;;;;5.06;92.10;101081.59;5075562;28;20556;-72
2024/03/05 07:40:11;;;;;;;4.60;2.10;;;;;;;5.00;91.86;101078.06;5074792;28;20814;-73
2024/03/05 07:42:44;;;;;;;3.53;2.17;;;;;;;5.00;91.60;101085.28;5074888;28;20464;-73
2024/03/05 07:45:12;;;;;;;7.80;2.57;;;;;;;4.99;91.88;101084.47;5074787;28;20437;-73
2024/03/05 07:47:39;;;;;;;10.33;4.20;;;;;;;5.00;92.67;101087.97;5075053;28;20493;-73
2024/03/05 07:50:07;;;;;;;6.20;3.20;;;;;;;5.02;92.15;101083.16;5074713;28;21000;-73
2024/03/05 07:52:33;;;;;;;5.70;3.43;;;;;;;5.00;92.13;101090.66;5074769;28;20493;-73
2024/03/05 07:55:00;;;;;;;5.10;3.03;;;;;;;5.00;91.83;101090.66;5074586;28;20444;-73
2024/03/05 07:57:27;;;;;;;7.23;3.70;;;;;;;5.06;92.37;101085.09;5074584;28;20997;-73
2024/03/05 07:59:55;;;;;;;9.33;3.33;;;;;;;5.15;92.20;101088.16;5074761;28;20520;-73
2024/03/05 08:02:21;;;;;;;6.20;2.93;;;;;;;5.25;92.05;101087.44;5074698;28;20497;-73
2024/03/05 08:04:48;;;;;;;9.90;3.90;;;;;;;5.27;91.47;101083.44;5074741;28;20517;-73
2024/03/05 08:07:14;;;;;;;12.87;3.77;;;;;;;5.31;91.66;101083.72;5074475;28;20567;-73
2024/03/05 08:09:41;;;;;;;6.30;3.70;;;;;;;5.40;91.75;101076.03;5074591;28;20434;-73
2024/03/05 08:12:08;;;;;;;6.17;2.10;;;;;;;5.45;91.37;101082.28;5074798;28;20489;-73
2024/03/05 08:14:34;;;;;;;7.23;2.30;;;;;;;5.52;90.90;101074.00;5074301;28;20450;-73
2024/03/05 08:17:03;;;;;;;6.50;3.13;;;;;;;5.60;90.56;101084.28;5074699;28;20456;-73
2024/03/05 08:19:30;;;;;;;5.33;3.40;;;;;;;5.58;90.17;101075.69;5074412;28;20445;-72
2024/03/05 08:21:57;;;;;;;7.93;2.87;;;;;;;5.61;89.96;101077.03;5074251;28;20441;-72
2024/03/05 08:24:23;;;;;;;6.17;3.30;;;;;;;5.66;90.18;101085.94;5074253;28;20440;-72
2024/03/05 08:26:50;;;;;;;11.50;3.40;;;;;;;5.67;89.88;101090.25;5074577;28;20472;-73
2024/03/05 08:29:18;;;;;;;12.70;3.53;;;;;;;5.73;89.81;101083.84;5074129;28;20481;-72
2024/03/05 08:31:44;;;;;;;7.67;4.07;;;;;;;5.81;89.34;101091.44;5073705;28;20445;-72
2024/03/05 08:34:12;;;;;;;6.63;3.50;;;;;;;5.78;88.68;101091.97;5074483;28;20437;-72
2024/03/05 08:36:39;;;;;;;4.23;2.60;;;;;;;5.82;89.03;101087.69;5073824;28;20532;-72
2024/03/05 08:39:17;;;;;;;5.50;2.23;;;;;;;5.89;88.87;101097.41;5073977;28;20531;-71
2024/03/05 08:41:46;;;;;;;8.00;3.73;;;;;;;5.99;89.07;101092.16;5073929;28;20422;-72
2024/03/05 08:44:14;;;;;;;15.93;3.73;;;;;;;5.99;87.25;101092.16;5073669;28;20449;-72
2024/03/05 08:46:40;;;;;;;6.20;3.17;;;;;;;6.03;86.71;101082.50;5073296;28;20448;-72
2024/03/05 08:49:07;;;;;;;6.50;3.07;;;;;;;6.06;87.91;101090.03;5073790;28;20520;-72
2024/03/05 08:51:37;;;;;;;4.93;2.97;;;;;;;6.10;87.33;101093.84;5073842;28;20441;-72
2024/03/05 08:54:04;;;;;;;8.97;3.40;;;;;;;6.18;87.46;101098.75;5073535;28;20957;-71
2024/03/05 08:56:31;;;;;;;8.03;4.43;;;;;;;6.23;86.85;101087.19;5074010;28;20473;-71
2024/03/05 08:58:57;;;;;;;7.17;2.90;;;;;;;6.28;87.03;101093.41;5074006;28;20434;-70
2024/03/05 09:01:24;;;;;;;9.67;4.30;;;;;;;6.40;86.69;101089.72;5073386;28;20484;-70
2024/03/05 09:03:52;;;;;;;7.43;3.67;;;;;;;6.48;86.45;101097.31;5073459;28;21051;-69
2024/03/05 09:06:18;;;;;;;10.20;4.40;;;;;;;6.53;85.67;101094.63;5073616;28;20524;-70
2024/03/05 09:08:46;;;;;;;9.03;2.93;;;;;;;6.51;85.25;101096.81;5073883;28;21065;-70
2024/03/05 09:11:13;;;;;;;9.70;4.00;;;;;;;6.54;85.42;101096.25;5073627;28;20468;-70
2024/03/05 09:13:43;;;;;;;11.53;3.30;;;;;;;6.51;83.98;101103.00;5073741;28;20457;-69
2024/03/05 09:16:12;;;;;;;13.50;5.63;;;;;;;6.59;84.51;101101.66;5073387;28;20456;-69
2024/03/05 09:18:39;;;;;;;7.13;3.10;;;;;;;6.73;83.99;101096.59;5073489;28;20438;-69
2024/03/05 09:21:07;;;;;;;5.60;3.47;;;;;;;6.79;83.66;101111.72;5073733;28;20472;-70
2024/03/05 09:23:34;;;;;;;8.97;3.63;;;;;;;6.81;82.71;101099.59;5073343;28;20488;-70
2024/03/05 09:26:02;;;;;;;6.60;3.37;;;;;;;6.83;82.50;101102.88;5073791;28;20937;-70
2024/03/05 09:28:31;;;;;;;7.37;3.40;;;;;;;6.88;82.51;101098.56;5073295;28;20521;-70
2024/03/05 09:30:58;;;;;;;9.20;3.63;;;;;;;6.92;80.16;101096.97;5073370;28;20445;-70
2024/03/05 09:33:26;;;;;;;5.40;3.20;;;;;;;6.97;81.77;101103.19;5073305;28;20548;-70
2024/03/05 09:35:53;;;;;;;5.67;2.70;;;;;;;6.86;79.45;101100.72;5073316;28;20445;-70
2024/03/05 09:38:19;;;;;;;4.67;3.13;;;;;;;6.86;80.02;101114.16;5072978;28;20947;-70
2024/03/05 09:40:47;;;;;;;5.33;2.80;;;;;;;6.92;80.31;101105.06;5073307;28;20478;-70
2024/03/05 09:43:16;;;;;;;7.70;3.60;;;;;;;6.99;81.09;101108.28;5073194;28;20457;-70
2024/03/05 09:45:48;;;;;;;9.20;3.30;;;;;;;7.08;80.91;101109.41;5073604;28;20433;-70
2024/03/05 09:48:18;;;;;;;8.27;3.50;;;;;;;7.14;80.13;101113.75;5073138;28;20527;-70
2024/03/05 09:50:45;;;;;;;7.10;3.10;;;;;;;7.15;79.90;101115.38;5073323;28;20433;-70
2024/03/05 09:53:12;;;;;;;6.10;3.77;;;;;;;7.22;79.91;101115.13;5072979;28;20552;-70
2024/03/05 09:55:39;;;;;;;6.70;4.13;;;;;;;7.21;79.16;101103.50;5073287;28;20445;-70
2024/03/05 09:58:10;;;;;;;12.23;4.27;;;;;;;7.27;79.45;101113.25;5075010;28;20447;-70
2024/03/05 10:00:39;;;;;;;8.60;3.80;;;;;;;7.28;78.56;101114.84;5077592;28;20462;-70
2024/03/05 10:03:08;;;;;;;5.53;3.20;;;;;;;7.42;78.89;101123.25;5077216;28;20477;-70
2024/03/05 10:05:36;;;;;;;5.93;3.30;;;;;;;7.54;78.43;101115.72;5077288;28;20441;-70
2024/03/05 10:08:04;;;;;;;5.80;3.27;;;;;;;7.70;79.11;101130.03;5076881;28;20512;-70
2024/03/05 10:10:32;;;;;;;6.00;3.93;;;;;;;7.79;78.05;101130.28;5077669;28;20437;-70
2024/03/05 10:13:01;;;;;;;6.97;3.00;;;;;;;7.84;77.83;101124.94;5077021;28;20511;-70
2024/03/05 10:15:28;;;;;;;8.50;3.20;;;;;;;7.87;77.78;101127.06;5076746;28;20507;-70
2024/03/05 10:17:57;;;;;;;7.07;3.70;;;;;;;7.83;77.34;101128.69;5077029;28;20503;-70
2024/03/05 10:20:28;;;;;;;7.03;3.53;;;;;;;7.72;76.92;101124.38;5076754;28;20914;-70
2024/03/05 10:22:57;;;;;;;6.40;3.43;;;;;;;7.65;76.22;101124.63;5076237;28;20514;-70
2024/03/05 10:25:24;;;;;;;8.50;4.10;;;;;;;7.62;75.69;101121.69;5076579;28;20796;-71
2024/03/05 10:27:51;;;;;;;7.60;3.53;;;;;;;7.57;76.40;101123.28;5076121;28;20929;-72
2024/03/05 10:30:23;;;;;;;4.77;2.60;;;;;;;7.55;76.17;101124.63;5076824;28;20480;-71
2024/03/05 10:32:59;;;;;;;5.40;2.77;;;;;;;7.53;75.59;101124.91;5076363;28;20465;-71
2024/03/05 10:35:26;;;;;;;8.90;3.43;;;;;;;7.54;76.07;101120.31;5076570;28;20426;-71
2024/03/05 10:37:59;;;;;;;5.00;3.17;;;;;;;7.53;74.56;101118.69;5076042;28;20494;-71
2024/03/05 10:40:31;;;;;;;7.53;2.93;;;;;;;7.51;74.19;101123.53;5076738;28;20420;-71
2024/03/05 10:43:01;;;;;;;6.60;3.50;;;;;;;7.50;74.24;101121.91;5076553;28;20457;-71
2024/03/05 10:45:28;;;;;;;5.73;3.23;;;;;;;7.49;74.19;101126.50;5076530;28;20437;-71
2024/03/05 10:47:56;;;;;;;7.97;3.20;;;;;;;7.46;74.04;101123.53;5076250;28;20930;-71
2024/03/05 10:50:26;;;;;;;5.97;2.40;;;;;;;7.50;72.57;101128.13;5076464;28;20441;-71
2024/03/05 10:52:54;;;;;;;6.00;2.23;;;;;;;7.50;73.22;101127.31;5076433;28;20816;-71
2024/03/05 10:55:21;;;;;;;4.47;2.47;;;;;;;7.59;70.68;101133.78;5076440;28;20441;-70
2024/03/05 11:00:35;;;;;;;5.03;2.07;;;;;;;7.76;69.37;101118.19;5076116;28;20401;-71
2024/03/05 11:03:07;;;;;;;3.30;1.83;;;;;;;7.86;67.99;101130.03;5076107;28;20457;-71
2024/03/05 11:05:49;;;;;;;8.40;3.47;;;;;;;8.04;69.89;101122.22;5076122;28;20425;-71
2024/03/05 11:08:18;;;;;;;4.63;2.40;;;;;;;8.38;68.59;101134.38;5075854;28;20474;-71
2024/03/05 11:10:49;;;;;;;4.23;2.40;;;;;;;8.70;66.61;101128.63;5074832;28;20445;-71
2024/03/05 11:13:17;;;;;;;4.17;1.97;;;;;;;9.03;64.27;101129.81;5076092;28;20464;-71
2024/03/05 11:15:45;;;;;;;6.03;2.80;;;;;;;9.22;61.96;101124.63;5075771;28;20477;-70
2024/03/05 11:18:28;;;;;;;7.00;3.07;;;;;;;9.38;62.40;101130.75;5075979;28;20465;-71
2024/03/05 11:20:56;;;;;;;5.47;2.50;;;;;;;9.70;61.65;101128.38;5075392;28;20532;-71
2024/03/05 11:23:29;;;;;;;5.43;2.23;;;;;;;10.06;61.33;101133.50;5075726;28;20540;-71
2024/03/05 11:26:00;;;;;;;4.43;2.20;;;;;;;10.46;61.60;101128.84;5075819;28;20422;-71
2024/03/05 11:28:27;;;;;;;3.77;2.20;;;;;;;10.66;57.75;101136.72;5075825;28;20466;-71
2024/03/05 11:31:09;;;;;;;5.27;2.40;;;;;;;10.78;56.50;101137.13;5075458;28;20439;-71
2024/03/05 11:33:38;;;;;;;6.63;3.43;;;;;;;10.49;55.54;101137.22;5075398;28;20472;-71
2024/03/05 11:36:16;;;;;;;5.27;2.50;;;;;;;9.95;55.24;101134.69;5075341;28;20941;-71
2024/03/05 11:38:56;;;;;;;5.00;2.67;;;;;;;9.59;57.09;101138.44;5075166;28;20426;-71
2024/03/05 11:41:25;;;;;;;4.00;2.27;;;;;;;9.31;56.37;101129.16;5075366;28;20504;-71
2024/03/05 11:43:53;;;;;;;7.47;3.40;;;;;;;9.13;57.75;101137.91;5074972;28;20561;-70